Time,TemperatureF,DewpointF,PressureIn,WindDirection,WindDirectionDegrees,WindSpeedMPH,WindSpeedGustMPH,Humidity,HourlyPrecipIn,Conditions,Clouds,dailyrainin,SoftwareType,DateUTC
2013-02-14 00:02:00,30.0,30.0,-100.00,NNW,332,6.0,9.0,99,0.00,,,0.04,,2013-02-14 05:02:00,
2013-02-14 00:11:00,30.0,30.0,-100.00,NNW,332,6.0,9.0,99,0.00,,,0.04,,2013-02-14 05:11:00,
2013-02-14 02:21:00,30.0,30.0,-100.00,NW,326,7.0,9.0,99,0.00,,,0.04,,2013-02-14 07:21:00,
2013-02-14 02:32:00,30.0,30.0,-100.00,NW,326,7.0,9.0,99,0.00,,,0.04,,2013-02-14 07:32:00,
2013-02-14 02:42:00,31.0,31.0,-100.00,NW,326,7.0,9.0,99,0.00,,,0.04,,2013-02-14 07:42:00,
2013-02-14 02:52:00,31.0,31.0,-100.00,NW,326,7.0,9.0,99,0.00,,,0.04,,2013-02-14 07:52:00,
2013-02-14 03:01:00,31.0,31.0,-100.00,NW,326,7.0,9.0,99,0.00,,,0.04,,2013-02-14 08:01:00,
2013-02-14 04:02:00,29.0,29.0,-100.00,NW,319,3.0,4.0,99,0.00,,,0.04,,2013-02-14 09:02:00,
2013-02-14 04:21:00,29.0,29.0,-100.00,NW,304,6.0,8.0,99,0.00,,,0.04,,2013-02-14 09:21:00,
2013-02-14 04:32:00,29.0,29.0,-100.00,NW,304,6.0,8.0,99,0.00,,,0.04,,2013-02-14 09:32:00,
2013-02-14 04:42:00,29.0,29.0,-100.00,NW,319,3.0,4.0,99,0.00,,,0.04,,2013-02-14 09:42:00,
2013-02-14 04:52:00,29.0,29.0,-100.00,NW,319,3.0,4.0,99,0.00,,,0.04,,2013-02-14 09:52:00,
2013-02-14 05:22:00,27.0,27.0,-100.00,NW,309,5.0,6.0,99,0.00,,,0.04,,2013-02-14 10:22:00,
2013-02-14 05:32:00,28.0,28.0,-100.00,WNW,295,6.0,8.0,99,0.00,,,0.04,,2013-02-14 10:32:00,
2013-02-14 05:42:00,28.0,28.0,-100.00,WNW,295,6.0,8.0,99,0.00,,,0.04,,2013-02-14 10:42:00,
2013-02-14 05:52:00,27.0,27.0,-100.00,NW,309,5.0,6.0,99,0.00,,,0.04,,2013-02-14 10:52:00,
2013-02-14 06:02:00,27.0,27.0,-100.00,NW,309,5.0,6.0,99,0.00,,,0.04,,2013-02-14 11:02:00,
2013-02-14 06:11:00,27.0,27.0,-100.00,NW,309,5.0,6.0,99,0.00,,,0.04,,2013-02-14 11:11:00,
2013-02-14 07:02:00,26.0,26.0,-100.00,NW,325,6.0,8.0,98,0.00,,,0.04,,2013-02-14 12:02:00,
2013-02-14 07:12:00,26.0,26.0,-100.00,NW,325,6.0,8.0,98,0.00,,,0.04,,2013-02-14 12:12:00,
2013-02-14 07:22:00,26.0,26.0,-100.00,NW,322,5.0,6.0,98,0.00,,,0.04,,2013-02-14 12:22:00,
2013-02-14 07:32:00,26.0,26.0,-100.00,NW,322,5.0,6.0,98,0.00,,,0.04,,2013-02-14 12:32:00,
2013-02-14 07:42:00,26.0,26.0,-100.00,NNW,333,5.0,8.0,98,0.00,,,0.04,,2013-02-14 12:42:00,
2013-02-14 07:53:00,26.0,26.0,-100.00,NNW,333,5.0,8.0,98,0.00,,,0.04,,2013-02-14 12:53:00,
2013-02-14 08:21:00,25.0,25.0,-100.00,NW,313,3.0,4.0,98,0.00,,,0.04,,2013-02-14 13:21:00,
2013-02-14 08:32:00,25.0,25.0,-100.00,NW,313,3.0,4.0,98,0.00,,,0.04,,2013-02-14 13:32:00,
2013-02-14 08:42:00,32.0,31.0,-100.00,WNW,302,4.0,7.0,97,0.00,,,0.04,,2013-02-14 13:42:00,
2013-02-14 09:01:00,31.0,31.0,-100.00,WNW,301,3.0,4.0,98,0.00,,,0.04,,2013-02-14 14:01:00,
2013-02-14 09:11:00,31.0,31.0,-100.00,WNW,301,3.0,4.0,98,0.00,,,0.04,,2013-02-14 14:11:00,
2013-02-14 09:21:00,32.0,31.0,-100.00,WNW,302,4.0,7.0,97,0.00,,,0.04,,2013-02-14 14:21:00,
2013-02-14 09:22:00,34.0,31.0,-100.00,NW,306,5.0,6.0,89,0.00,,,0.04,,2013-02-14 14:22:00,
2013-02-14 09:32:00,32.0,31.0,-100.00,WNW,302,4.0,7.0,97,0.00,,,0.04,,2013-02-14 14:32:00,
2013-02-14 10:02:00,34.0,31.0,-100.00,NW,306,5.0,6.0,89,0.00,,,0.04,,2013-02-14 15:02:00,
2013-02-14 10:11:00,34.0,31.0,-100.00,NW,306,5.0,6.0,89,0.00,,,0.04,,2013-02-14 15:11:00,
2013-02-14 10:22:00,33.0,28.0,-100.00,WNW,296,4.0,7.0,83,0.00,,,0.04,,2013-02-14 15:22:00,
2013-02-14 10:42:00,33.0,29.0,-100.00,NW,305,6.0,8.0,85,0.00,,,0.04,,2013-02-14 15:42:00,
2013-02-14 10:52:00,33.0,29.0,-100.00,NW,305,6.0,8.0,85,0.00,,,0.04,,2013-02-14 15:52:00,
2013-02-14 11:02:00,33.0,28.0,-100.00,WNW,296,4.0,7.0,83,0.00,,,0.04,,2013-02-14 16:02:00,
2013-02-14 11:11:00,33.0,28.0,-100.00,WNW,296,4.0,7.0,83,0.00,,,0.04,,2013-02-14 16:11:00,
2013-02-14 12:01:00,35.0,26.0,-100.00,NW,316,5.0,8.0,70,0.00,,,0.04,,2013-02-14 17:01:00,
2013-02-14 12:11:00,35.0,26.0,-100.00,NW,316,5.0,8.0,70,0.00,,,0.04,,2013-02-14 17:11:00,
2013-02-14 12:21:00,35.0,26.0,-100.00,NW,316,5.0,8.0,70,0.00,,,0.04,,2013-02-14 17:21:00,
2013-02-14 12:22:00,37.0,24.0,-100.00,NW,316,7.0,11.0,59,0.00,,,0.04,,2013-02-14 17:22:00,
2013-02-14 13:02:00,37.0,24.0,-100.00,NW,316,7.0,11.0,59,0.00,,,0.04,,2013-02-14 18:02:00,
2013-02-14 13:11:00,37.0,24.0,-100.00,NW,316,7.0,11.0,59,0.00,,,0.04,,2013-02-14 18:11:00,
2013-02-14 14:42:00,40.0,26.0,-100.00,WNW,291,3.0,4.0,58,0.00,,,0.04,,2013-02-14 19:42:00,
2013-02-14 14:52:00,40.0,26.0,-100.00,WNW,291,3.0,4.0,58,0.00,,,0.04,,2013-02-14 19:52:00,
2013-02-14 15:01:00,40.0,26.0,-100.00,WNW,291,3.0,4.0,58,0.00,,,0.04,,2013-02-14 20:01:00,
2013-02-14 15:22:00,43.0,24.0,-100.00,West,261,2.0,4.0,46,0.00,,,0.04,,2013-02-14 20:22:00,
2013-02-14 15:42:00,43.0,25.0,-100.00,West,267,2.0,5.0,49,0.00,,,0.04,,2013-02-14 20:42:00,
2013-02-14 15:52:00,43.0,25.0,-100.00,West,267,2.0,5.0,49,0.00,,,0.04,,2013-02-14 20:52:00,
2013-02-14 16:02:00,43.0,24.0,-100.00,West,261,2.0,4.0,46,0.00,,,0.04,,2013-02-14 21:02:00,
2013-02-14 16:11:00,43.0,24.0,-100.00,West,261,2.0,4.0,46,0.00,,,0.04,,2013-02-14 21:11:00,
2013-02-14 16:42:00,43.0,22.0,-100.00,West,270,1.0,2.0,44,0.00,,,0.04,,2013-02-14 21:42:00,
2013-02-14 16:52:00,43.0,22.0,-100.00,West,270,1.0,2.0,44,0.00,,,0.04,,2013-02-14 21:52:00,
2013-02-14 17:42:00,42.0,20.0,-100.00,East,82,1.0,4.0,42,0.00,,,0.04,,2013-02-14 22:42:00,
2013-02-14 17:52:00,42.0,20.0,-100.00,East,82,1.0,4.0,42,0.00,,,0.04,,2013-02-14 22:52:00,
2013-02-14 18:01:00,42.0,20.0,-100.00,ESE,123,2.0,3.0,42,0.00,,,0.04,,2013-02-14 23:01:00,
2013-02-14 18:11:00,42.0,20.0,-100.00,ESE,123,2.0,3.0,42,0.00,,,0.04,,2013-02-14 23:11:00,
2013-02-14 18:21:00,42.0,20.0,-100.00,ESE,123,2.0,3.0,42,0.00,,,0.04,,2013-02-14 23:21:00,
2013-02-14 19:02:00,41.0,23.0,-100.00,NE,40,2.0,4.0,48,0.00,,,0.01,,2013-02-15 00:02:00,
2013-02-14 19:42:00,41.0,23.0,-100.00,NE,40,2.0,4.0,48,0.00,,,0.01,,2013-02-15 00:42:00,
2013-02-14 19:52:00,41.0,23.0,-100.00,NE,40,2.0,4.0,48,0.00,,,0.01,,2013-02-15 00:52:00,
2013-02-14 20:21:00,40.0,22.0,-100.00,WNW,291,4.0,6.0,49,0.00,,,0.00,,2013-02-15 01:21:00,
2013-02-14 20:32:00,40.0,22.0,-100.00,WNW,291,4.0,6.0,49,0.00,,,0.00,,2013-02-15 01:32:00,
2013-02-14 20:42:00,40.0,22.0,-100.00,NW,309,3.0,6.0,49,0.00,,,0.00,,2013-02-15 01:42:00,
2013-02-14 20:52:00,40.0,22.0,-100.00,NW,309,3.0,6.0,49,0.00,,,0.00,,2013-02-15 01:52:00,
2013-02-14 21:01:00,40.0,22.0,-100.00,WNW,288,2.0,3.0,49,0.00,,,0.00,,2013-02-15 02:01:00,
2013-02-14 21:11:00,40.0,22.0,-100.00,WNW,288,2.0,3.0,49,0.00,,,0.00,,2013-02-15 02:11:00,
2013-02-14 21:21:00,40.0,22.0,-100.00,WNW,289,3.0,6.0,49,0.00,,,0.00,,2013-02-15 02:21:00,
2013-02-14 21:32:00,40.0,22.0,-100.00,WNW,289,3.0,6.0,49,0.00,,,0.00,,2013-02-15 02:32:00,
2013-02-14 22:42:00,39.0,22.0,-100.00,West,280,3.0,5.0,51,0.00,,,0.00,,2013-02-15 03:42:00,
2013-02-14 22:52:00,39.0,22.0,-100.00,West,280,3.0,5.0,51,0.00,,,0.00,,2013-02-15 03:52:00,
2013-02-14 23:02:00,39.0,23.0,-100.00,WNW,285,3.0,4.0,52,0.00,,,0.00,,2013-02-15 04:02:00,
2013-02-14 23:11:00,39.0,23.0,-100.00,WNW,285,3.0,4.0,52,0.00,,,0.00,,2013-02-15 04:11:00,
2013-02-14 23:21:00,39.0,23.0,-100.00,WNW,285,3.0,4.0,52,0.00,,,0.00,,2013-02-15 04:21:00,
2013-02-14 23:42:00,40.0,23.0,-100.00,WNW,302,1.0,3.0,49,0.00,,,0.00,,2013-02-15 04:42:00,
2013-02-14 23:52:00,40.0,23.0,-100.00,WNW,302,1.0,3.0,49,0.00,,,0.00,,2013-02-15 04:52:00,